sensor_id;sensor_type;location;lat;lon;timestamp;P1;durP1;ratioP1;P2;durP2;ratioP2
55467;SDS011;41332;42.702;23.200;2022-10-19T00:01:56;5.30;;;2.15;;
55467;SDS011;41332;42.702;23.200;2022-10-19T00:04:21;5.40;;;3.17;;
55467;SDS011;41332;42.702;23.200;2022-10-19T00:06:46;5.35;;;4.80;;
55467;SDS011;41332;42.702;23.200;2022-10-19T00:09:13;7.93;;;5.07;;
55467;SDS011;41332;42.702;23.200;2022-10-19T00:11:41;8.10;;;4.38;;
55467;SDS011;41332;42.702;23.200;2022-10-19T00:14:10;5.25;;;4.60;;
55467;SDS011;41332;42.702;23.200;2022-10-19T00:16:38;3.90;;;3.30;;
55467;SDS011;41332;42.702;23.200;2022-10-19T00:19:10;3.92;;;3.00;;
55467;SDS011;41332;42.702;23.200;2022-10-19T00:21:38;2.65;;;2.45;;
55467;SDS011;41332;42.702;23.200;2022-10-19T00:24:04;5.78;;;2.78;;
55467;SDS011;41332;42.702;23.200;2022-10-19T00:26:30;4.53;;;2.50;;
55467;SDS011;41332;42.702;23.200;2022-10-19T00:28:56;3.08;;;2.13;;
55467;SDS011;41332;42.702;23.200;2022-10-19T00:31:21;2.83;;;2.58;;
55467;SDS011;41332;42.702;23.200;2022-10-19T00:33:47;2.85;;;2.35;;
55467;SDS011;41332;42.702;23.200;2022-10-19T00:36:23;3.05;;;2.40;;
55467;SDS011;41332;42.702;23.200;2022-10-19T00:38:54;2.60;;;2.20;;
55467;SDS011;41332;42.702;23.200;2022-10-19T00:41:21;2.08;;;1.88;;
55467;SDS011;41332;42.702;23.200;2022-10-19T00:43:59;3.00;;;2.15;;
55467;SDS011;41332;42.702;23.200;2022-10-19T00:46:25;5.57;;;3.20;;
55467;SDS011;41332;42.702;23.200;2022-10-19T00:48:56;4.93;;;2.70;;
55467;SDS011;41332;42.702;23.200;2022-10-19T00:51:25;2.60;;;2.35;;
55467;SDS011;41332;42.702;23.200;2022-10-19T00:56:18;3.67;;;2.08;;
55467;SDS011;41332;42.702;23.200;2022-10-19T00:58:44;2.25;;;1.83;;
55467;SDS011;41332;42.702;23.200;2022-10-19T01:01:10;6.32;;;2.00;;
55467;SDS011;41332;42.702;23.200;2022-10-19T01:03:39;2.60;;;1.90;;
55467;SDS011;41332;42.702;23.200;2022-10-19T01:06:05;5.85;;;3.03;;
55467;SDS011;41332;42.702;23.200;2022-10-19T01:08:32;3.63;;;2.15;;
55467;SDS011;41332;42.702;23.200;2022-10-19T01:27:59;3.70;;;2.88;;
55467;SDS011;41332;42.702;23.200;2022-10-19T01:36:51;10.40;;;5.10;;
55467;SDS011;41332;42.702;23.200;2022-10-19T01:39:22;6.88;;;3.78;;
55467;SDS011;41332;42.702;23.200;2022-10-19T01:42:01;5.10;;;2.67;;
55467;SDS011;41332;42.702;23.200;2022-10-19T01:50:14;8.88;;;4.57;;
55467;SDS011;41332;42.702;23.200;2022-10-19T01:52:43;9.05;;;6.68;;
55467;SDS011;41332;42.702;23.200;2022-10-19T01:55:09;11.45;;;7.20;;
55467;SDS011;41332;42.702;23.200;2022-10-19T01:57:49;7.10;;;6.32;;
55467;SDS011;41332;42.702;23.200;2022-10-19T02:00:20;4.18;;;3.88;;
55467;SDS011;41332;42.702;23.200;2022-10-19T02:02:47;5.63;;;4.00;;
55467;SDS011;41332;42.702;23.200;2022-10-19T02:05:17;3.42;;;2.20;;
55467;SDS011;41332;42.702;23.200;2022-10-19T02:07:47;2.95;;;2.25;;
55467;SDS011;41332;42.702;23.200;2022-10-19T02:10:18;2.97;;;2.28;;
55467;SDS011;41332;42.702;23.200;2022-10-19T02:12:45;4.23;;;2.10;;
55467;SDS011;41332;42.702;23.200;2022-10-19T02:15:13;2.50;;;2.10;;
55467;SDS011;41332;42.702;23.200;2022-10-19T02:17:44;2.33;;;1.88;;
55467;SDS011;41332;42.702;23.200;2022-10-19T02:20:13;3.35;;;2.40;;
55467;SDS011;41332;42.702;23.200;2022-10-19T02:22:40;4.40;;;2.10;;
55467;SDS011;41332;42.702;23.200;2022-10-19T02:25:06;2.83;;;2.63;;
55467;SDS011;41332;42.702;23.200;2022-10-19T02:27:32;2.67;;;2.07;;
55467;SDS011;41332;42.702;23.200;2022-10-19T02:29:59;2.83;;;2.20;;
55467;SDS011;41332;42.702;23.200;2022-10-19T02:32:24;2.40;;;2.20;;
55467;SDS011;41332;42.702;23.200;2022-10-19T02:34:51;1.95;;;1.83;;
55467;SDS011;41332;42.702;23.200;2022-10-19T02:37:16;2.58;;;1.88;;
55467;SDS011;41332;42.702;23.200;2022-10-19T02:39:42;2.72;;;1.88;;
55467;SDS011;41332;42.702;23.200;2022-10-19T02:44:52;3.20;;;2.20;;
55467;SDS011;41332;42.702;23.200;2022-10-19T02:47:41;3.40;;;1.77;;
55467;SDS011;41332;42.702;23.200;2022-10-19T02:50:10;2.13;;;1.88;;
55467;SDS011;41332;42.702;23.200;2022-10-19T02:52:36;2.13;;;1.88;;
55467;SDS011;41332;42.702;23.200;2022-10-19T02:55:03;3.25;;;2.40;;
55467;SDS011;41332;42.702;23.200;2022-10-19T02:57:29;3.38;;;2.00;;
55467;SDS011;41332;42.702;23.200;2022-10-19T02:59:56;1.92;;;1.83;;
55467;SDS011;41332;42.702;23.200;2022-10-19T03:02:22;4.45;;;2.25;;
55467;SDS011;41332;42.702;23.200;2022-10-19T03:04:48;2.67;;;2.08;;
55467;SDS011;41332;42.702;23.200;2022-10-19T03:07:15;5.40;;;1.63;;
55467;SDS011;41332;42.702;23.200;2022-10-19T03:12:08;2.67;;;2.00;;
55467;SDS011;41332;42.702;23.200;2022-10-19T03:14:33;5.93;;;3.58;;
55467;SDS011;41332;42.702;23.200;2022-10-19T03:16:59;5.88;;;4.70;;
55467;SDS011;41332;42.702;23.200;2022-10-19T03:19:24;6.90;;;4.65;;
55467;SDS011;41332;42.702;23.200;2022-10-19T03:21:49;7.95;;;5.45;;
55467;SDS011;41332;42.702;23.200;2022-10-19T03:24:15;6.18;;;5.50;;
55467;SDS011;41332;42.702;23.200;2022-10-19T03:26:41;6.85;;;6.25;;
55467;SDS011;41332;42.702;23.200;2022-10-19T03:29:06;5.35;;;4.85;;
55467;SDS011;41332;42.702;23.200;2022-10-19T03:31:32;6.00;;;3.75;;
55467;SDS011;41332;42.702;23.200;2022-10-19T03:33:57;3.97;;;2.90;;
55467;SDS011;41332;42.702;23.200;2022-10-19T03:36:27;7.10;;;3.00;;
55467;SDS011;41332;42.702;23.200;2022-10-19T03:38:58;5.57;;;3.40;;
55467;SDS011;41332;42.702;23.200;2022-10-19T03:41:26;6.05;;;4.03;;
55467;SDS011;41332;42.702;23.200;2022-10-19T03:43:53;5.28;;;2.58;;
55467;SDS011;41332;42.702;23.200;2022-10-19T03:46:19;5.07;;;3.97;;
55467;SDS011;41332;42.702;23.200;2022-10-19T03:48:45;4.72;;;3.67;;
55467;SDS011;41332;42.702;23.200;2022-10-19T03:51:18;7.05;;;4.20;;
55467;SDS011;41332;42.702;23.200;2022-10-19T03:53:46;11.98;;;8.70;;
55467;SDS011;41332;42.702;23.200;2022-10-19T03:56:17;33.90;;;22.15;;
55467;SDS011;41332;42.702;23.200;2022-10-19T03:58:45;22.90;;;15.57;;
55467;SDS011;41332;42.702;23.200;2022-10-19T04:03:40;3.60;;;3.30;;
55467;SDS011;41332;42.702;23.200;2022-10-19T04:06:08;3.38;;;2.22;;
55467;SDS011;41332;42.702;23.200;2022-10-19T04:08:37;2.25;;;2.00;;
55467;SDS011;41332;42.702;23.200;2022-10-19T04:11:03;4.10;;;2.70;;
55467;SDS011;41332;42.702;23.200;2022-10-19T04:13:35;2.63;;;2.42;;
55467;SDS011;41332;42.702;23.200;2022-10-19T04:16:01;7.57;;;2.83;;
55467;SDS011;41332;42.702;23.200;2022-10-19T04:18:27;6.05;;;2.75;;
55467;SDS011;41332;42.702;23.200;2022-10-19T04:20:59;3.88;;;2.33;;
55467;SDS011;41332;42.702;23.200;2022-10-19T04:23:26;4.07;;;3.08;;
55467;SDS011;41332;42.702;23.200;2022-10-19T04:28:26;2.35;;;2.13;;
55467;SDS011;41332;42.702;23.200;2022-10-19T04:30:51;4.78;;;2.72;;
55467;SDS011;41332;42.702;23.200;2022-10-19T04:33:17;5.00;;;2.80;;
55467;SDS011;41332;42.702;23.200;2022-10-19T04:35:42;5.00;;;3.03;;
55467;SDS011;41332;42.702;23.200;2022-10-19T04:38:07;3.65;;;3.20;;
55467;SDS011;41332;42.702;23.200;2022-10-19T04:40:34;3.53;;;2.85;;
55467;SDS011;41332;42.702;23.200;2022-10-19T04:43:00;3.67;;;3.20;;
55467;SDS011;41332;42.702;23.200;2022-10-19T04:45:25;7.00;;;3.95;;
55467;SDS011;41332;42.702;23.200;2022-10-19T04:47:51;6.15;;;2.78;;
55467;SDS011;41332;42.702;23.200;2022-10-19T04:50:20;4.05;;;2.92;;
55467;SDS011;41332;42.702;23.200;2022-10-19T04:52:48;6.85;;;2.55;;
55467;SDS011;41332;42.702;23.200;2022-10-19T04:55:13;7.50;;;2.70;;
55467;SDS011;41332;42.702;23.200;2022-10-19T04:57:39;4.32;;;2.90;;
55467;SDS011;41332;42.702;23.200;2022-10-19T05:00:04;5.00;;;3.38;;
55467;SDS011;41332;42.702;23.200;2022-10-19T05:02:30;3.95;;;2.90;;
55467;SDS011;41332;42.702;23.200;2022-10-19T05:04:56;5.45;;;2.72;;
55467;SDS011;41332;42.702;23.200;2022-10-19T05:07:21;2.83;;;2.63;;
55467;SDS011;41332;42.702;23.200;2022-10-19T05:09:46;3.95;;;3.15;;
55467;SDS011;41332;42.702;23.200;2022-10-19T05:12:12;4.57;;;2.47;;
55467;SDS011;41332;42.702;23.200;2022-10-19T05:14:37;6.57;;;3.40;;
55467;SDS011;41332;42.702;23.200;2022-10-19T05:17:02;3.75;;;2.38;;
55467;SDS011;41332;42.702;23.200;2022-10-19T05:19:28;5.05;;;2.70;;
55467;SDS011;41332;42.702;23.200;2022-10-19T05:21:53;3.15;;;2.85;;
55467;SDS011;41332;42.702;23.200;2022-10-19T05:24:18;8.20;;;3.03;;
55467;SDS011;41332;42.702;23.200;2022-10-19T05:26:44;6.47;;;3.40;;
55467;SDS011;41332;42.702;23.200;2022-10-19T05:29:10;5.10;;;2.78;;
55467;SDS011;41332;42.702;23.200;2022-10-19T05:31:36;6.00;;;3.90;;
55467;SDS011;41332;42.702;23.200;2022-10-19T05:34:02;5.78;;;4.40;;
55467;SDS011;41332;42.702;23.200;2022-10-19T05:36:32;6.63;;;4.75;;
55467;SDS011;41332;42.702;23.200;2022-10-19T05:39:04;7.47;;;4.88;;
55467;SDS011;41332;42.702;23.200;2022-10-19T05:41:34;6.50;;;5.15;;
55467;SDS011;41332;42.702;23.200;2022-10-19T05:44:00;7.70;;;4.70;;
55467;SDS011;41332;42.702;23.200;2022-10-19T05:46:27;5.50;;;4.18;;
55467;SDS011;41332;42.702;23.200;2022-10-19T05:48:54;10.93;;;4.53;;
55467;SDS011;41332;42.702;23.200;2022-10-19T05:51:21;11.68;;;7.03;;
55467;SDS011;41332;42.702;23.200;2022-10-19T05:53:48;5.45;;;4.50;;
55467;SDS011;41332;42.702;23.200;2022-10-19T05:56:14;9.80;;;6.22;;
55467;SDS011;41332;42.702;23.200;2022-10-19T05:58:41;15.50;;;5.25;;
55467;SDS011;41332;42.702;23.200;2022-10-19T06:01:06;8.32;;;4.90;;
55467;SDS011;41332;42.702;23.200;2022-10-19T06:03:33;21.08;;;5.20;;
55467;SDS011;41332;42.702;23.200;2022-10-19T06:06:01;6.57;;;5.07;;
55467;SDS011;41332;42.702;23.200;2022-10-19T06:08:27;17.98;;;6.03;;
55467;SDS011;41332;42.702;23.200;2022-10-19T06:10:56;8.20;;;4.90;;
55467;SDS011;41332;42.702;23.200;2022-10-19T06:13:41;6.20;;;5.07;;
55467;SDS011;41332;42.702;23.200;2022-10-19T06:16:09;5.70;;;4.85;;
55467;SDS011;41332;42.702;23.200;2022-10-19T06:18:36;6.13;;;4.70;;
55467;SDS011;41332;42.702;23.200;2022-10-19T06:21:03;8.23;;;5.00;;
55467;SDS011;41332;42.702;23.200;2022-10-19T06:23:31;7.15;;;4.63;;
55467;SDS011;41332;42.702;23.200;2022-10-19T06:25:57;7.77;;;5.17;;
55467;SDS011;41332;42.702;23.200;2022-10-19T06:28:23;9.63;;;4.75;;
55467;SDS011;41332;42.702;23.200;2022-10-19T06:30:48;6.60;;;4.90;;
55467;SDS011;41332;42.702;23.200;2022-10-19T06:33:14;4.72;;;4.22;;
55467;SDS011;41332;42.702;23.200;2022-10-19T06:35:39;7.57;;;4.90;;
55467;SDS011;41332;42.702;23.200;2022-10-19T06:38:07;5.22;;;4.60;;
55467;SDS011;41332;42.702;23.200;2022-10-19T06:40:33;10.43;;;4.95;;
55467;SDS011;41332;42.702;23.200;2022-10-19T06:43:02;13.20;;;5.93;;
55467;SDS011;41332;42.702;23.200;2022-10-19T06:45:27;7.63;;;4.83;;
55467;SDS011;41332;42.702;23.200;2022-10-19T06:47:52;10.13;;;5.00;;
55467;SDS011;41332;42.702;23.200;2022-10-19T06:50:18;9.53;;;5.17;;
55467;SDS011;41332;42.702;23.200;2022-10-19T06:52:44;5.53;;;4.00;;
55467;SDS011;41332;42.702;23.200;2022-10-19T06:55:10;8.03;;;4.67;;
55467;SDS011;41332;42.702;23.200;2022-10-19T06:57:36;5.20;;;4.03;;
55467;SDS011;41332;42.702;23.200;2022-10-19T07:00:02;7.67;;;4.90;;
55467;SDS011;41332;42.702;23.200;2022-10-19T07:02:29;7.88;;;4.65;;
55467;SDS011;41332;42.702;23.200;2022-10-19T07:04:55;7.00;;;5.10;;
55467;SDS011;41332;42.702;23.200;2022-10-19T07:07:20;10.87;;;4.93;;
55467;SDS011;41332;42.702;23.200;2022-10-19T07:09:46;13.70;;;5.63;;
55467;SDS011;41332;42.702;23.200;2022-10-19T07:12:12;8.57;;;5.18;;
55467;SDS011;41332;42.702;23.200;2022-10-19T07:14:37;10.07;;;5.07;;
55467;SDS011;41332;42.702;23.200;2022-10-19T07:17:06;14.73;;;6.47;;
55467;SDS011;41332;42.702;23.200;2022-10-19T07:19:33;9.25;;;4.97;;
55467;SDS011;41332;42.702;23.200;2022-10-19T07:21:59;9.80;;;5.17;;
55467;SDS011;41332;42.702;23.200;2022-10-19T07:24:24;8.10;;;6.20;;
55467;SDS011;41332;42.702;23.200;2022-10-19T07:26:50;8.00;;;5.07;;
55467;SDS011;41332;42.702;23.200;2022-10-19T07:29:15;6.27;;;4.70;;
55467;SDS011;41332;42.702;23.200;2022-10-19T07:31:41;6.77;;;4.53;;
55467;SDS011;41332;42.702;23.200;2022-10-19T07:34:09;11.50;;;4.73;;
55467;SDS011;41332;42.702;23.200;2022-10-19T07:36:37;8.57;;;4.97;;
55467;SDS011;41332;42.702;23.200;2022-10-19T07:39:04;5.50;;;4.65;;
55467;SDS011;41332;42.702;23.200;2022-10-19T07:41:34;6.95;;;4.70;;
55467;SDS011;41332;42.702;23.200;2022-10-19T07:44:00;6.27;;;5.03;;
55467;SDS011;41332;42.702;23.200;2022-10-19T07:46:26;8.05;;;4.95;;
55467;SDS011;41332;42.702;23.200;2022-10-19T07:48:53;8.02;;;4.50;;
55467;SDS011;41332;42.702;23.200;2022-10-19T07:51:20;5.55;;;3.97;;
55467;SDS011;41332;42.702;23.200;2022-10-19T07:53:46;7.78;;;4.45;;
55467;SDS011;41332;42.702;23.200;2022-10-19T07:56:13;6.13;;;5.38;;
55467;SDS011;41332;42.702;23.200;2022-10-19T07:58:43;8.45;;;5.20;;
55467;SDS011;41332;42.702;23.200;2022-10-19T08:01:16;8.63;;;5.23;;
55467;SDS011;41332;42.702;23.200;2022-10-19T08:03:43;4.93;;;4.43;;
55467;SDS011;41332;42.702;23.200;2022-10-19T08:06:11;5.88;;;4.90;;
55467;SDS011;41332;42.702;23.200;2022-10-19T08:08:40;6.13;;;4.93;;
55467;SDS011;41332;42.702;23.200;2022-10-19T08:11:07;7.63;;;5.60;;
55467;SDS011;41332;42.702;23.200;2022-10-19T08:13:37;7.18;;;5.47;;
55467;SDS011;41332;42.702;23.200;2022-10-19T08:16:03;7.10;;;4.63;;
55467;SDS011;41332;42.702;23.200;2022-10-19T08:18:29;8.97;;;4.93;;
55467;SDS011;41332;42.702;23.200;2022-10-19T08:20:54;8.33;;;5.10;;
55467;SDS011;41332;42.702;23.200;2022-10-19T08:23:20;7.57;;;4.50;;
55467;SDS011;41332;42.702;23.200;2022-10-19T08:25:47;7.95;;;4.72;;
55467;SDS011;41332;42.702;23.200;2022-10-19T08:28:12;5.40;;;4.30;;
55467;SDS011;41332;42.702;23.200;2022-10-19T08:30:37;5.40;;;4.43;;
55467;SDS011;41332;42.702;23.200;2022-10-19T08:33:03;6.87;;;4.07;;
55467;SDS011;41332;42.702;23.200;2022-10-19T08:35:31;7.93;;;3.13;;
55467;SDS011;41332;42.702;23.200;2022-10-19T08:37:57;10.77;;;3.88;;
55467;SDS011;41332;42.702;23.200;2022-10-19T08:40:24;4.45;;;3.28;;
55467;SDS011;41332;42.702;23.200;2022-10-19T08:42:58;7.97;;;4.13;;
55467;SDS011;41332;42.702;23.200;2022-10-19T08:45:41;6.68;;;3.53;;
55467;SDS011;41332;42.702;23.200;2022-10-19T08:50:58;4.57;;;3.97;;
55467;SDS011;41332;42.702;23.200;2022-10-19T08:53:36;7.47;;;3.30;;
55467;SDS011;41332;42.702;23.200;2022-10-19T08:56:23;8.10;;;4.20;;
55467;SDS011;41332;42.702;23.200;2022-10-19T09:01:38;3.83;;;3.28;;
55467;SDS011;41332;42.702;23.200;2022-10-19T09:09:13;2.20;;;2.08;;
55467;SDS011;41332;42.702;23.200;2022-10-19T09:11:45;6.00;;;2.63;;
55467;SDS011;41332;42.702;23.200;2022-10-19T09:14:24;5.32;;;3.15;;
55467;SDS011;41332;42.702;23.200;2022-10-19T09:16:55;5.18;;;3.10;;
55467;SDS011;41332;42.702;23.200;2022-10-19T09:19:26;2.53;;;2.30;;
55467;SDS011;41332;42.702;23.200;2022-10-19T09:22:01;8.88;;;3.15;;
55467;SDS011;41332;42.702;23.200;2022-10-19T09:24:45;3.70;;;3.08;;
55467;SDS011;41332;42.702;23.200;2022-10-19T09:27:19;4.57;;;2.58;;
55467;SDS011;41332;42.702;23.200;2022-10-19T09:29:53;5.70;;;2.78;;
55467;SDS011;41332;42.702;23.200;2022-10-19T09:32:40;2.97;;;2.67;;
55467;SDS011;41332;42.702;23.200;2022-10-19T09:35:22;3.97;;;2.85;;
55467;SDS011;41332;42.702;23.200;2022-10-19T09:38:05;5.38;;;2.65;;
55467;SDS011;41332;42.702;23.200;2022-10-19T09:40:32;4.22;;;2.80;;
55467;SDS011;41332;42.702;23.200;2022-10-19T09:42:58;2.60;;;2.40;;
55467;SDS011;41332;42.702;23.200;2022-10-19T09:45:34;3.40;;;2.67;;
55467;SDS011;41332;42.702;23.200;2022-10-19T09:48:14;5.47;;;2.05;;
55467;SDS011;41332;42.702;23.200;2022-10-19T09:50:44;2.75;;;2.42;;
55467;SDS011;41332;42.702;23.200;2022-10-19T09:53:19;2.33;;;2.13;;
55467;SDS011;41332;42.702;23.200;2022-10-19T09:56:04;4.05;;;2.22;;
55467;SDS011;41332;42.702;23.200;2022-10-19T09:58:30;2.20;;;2.00;;
55467;SDS011;41332;42.702;23.200;2022-10-19T10:00:56;2.38;;;2.10;;
55467;SDS011;41332;42.702;23.200;2022-10-19T10:06:06;2.50;;;2.30;;
55467;SDS011;41332;42.702;23.200;2022-10-19T10:08:35;3.05;;;2.85;;
55467;SDS011;41332;42.702;23.200;2022-10-19T10:13:39;2.60;;;2.40;;
55467;SDS011;41332;42.702;23.200;2022-10-19T10:16:13;2.80;;;2.60;;
55467;SDS011;41332;42.702;23.200;2022-10-19T10:18:59;4.72;;;2.83;;
55467;SDS011;41332;42.702;23.200;2022-10-19T10:21:29;2.63;;;2.42;;
55467;SDS011;41332;42.702;23.200;2022-10-19T10:29:30;2.83;;;2.00;;
55467;SDS011;41332;42.702;23.200;2022-10-19T10:31:59;2.75;;;2.55;;
55467;SDS011;41332;42.702;23.200;2022-10-19T10:34:31;2.70;;;2.15;;
55467;SDS011;41332;42.702;23.200;2022-10-19T10:37:03;2.50;;;2.30;;
55467;SDS011;41332;42.702;23.200;2022-10-19T10:39:31;2.17;;;2.08;;
55467;SDS011;41332;42.702;23.200;2022-10-19T10:41:59;2.38;;;2.17;;
55467;SDS011;41332;42.702;23.200;2022-10-19T10:44:31;3.38;;;2.03;;
55467;SDS011;41332;42.702;23.200;2022-10-19T10:47:01;3.95;;;2.45;;
55467;SDS011;41332;42.702;23.200;2022-10-19T10:49:34;2.20;;;2.00;;
55467;SDS011;41332;42.702;23.200;2022-10-19T10:52:14;1.80;;;1.70;;
55467;SDS011;41332;42.702;23.200;2022-10-19T10:57:26;2.75;;;2.55;;
55467;SDS011;41332;42.702;23.200;2022-10-19T11:02:47;4.80;;;1.92;;
55467;SDS011;41332;42.702;23.200;2022-10-19T11:10:59;3.25;;;2.25;;
55467;SDS011;41332;42.702;23.200;2022-10-19T11:13:40;2.50;;;1.83;;
55467;SDS011;41332;42.702;23.200;2022-10-19T11:16:12;2.53;;;1.95;;
55467;SDS011;41332;42.702;23.200;2022-10-19T11:18:42;2.10;;;1.90;;
55467;SDS011;41332;42.702;23.200;2022-10-19T11:21:14;2.10;;;1.63;;
55467;SDS011;41332;42.702;23.200;2022-10-19T11:40:37;2.95;;;2.03;;
55467;SDS011;41332;42.702;23.200;2022-10-19T11:43:11;2.78;;;2.00;;
55467;SDS011;41332;42.702;23.200;2022-10-19T11:59:31;2.25;;;2.05;;
55467;SDS011;41332;42.702;23.200;2022-10-19T12:12:41;4.55;;;2.47;;
55467;SDS011;41332;42.702;23.200;2022-10-19T12:17:36;2.42;;;2.22;;
55467;SDS011;41332;42.702;23.200;2022-10-19T12:20:06;3.05;;;2.70;;
55467;SDS011;41332;42.702;23.200;2022-10-19T12:22:40;3.72;;;2.13;;
55467;SDS011;41332;42.702;23.200;2022-10-19T12:25:10;3.72;;;3.42;;
55467;SDS011;41332;42.702;23.200;2022-10-19T12:27:39;5.25;;;3.00;;
55467;SDS011;41332;42.702;23.200;2022-10-19T12:32:33;2.35;;;2.15;;
55467;SDS011;41332;42.702;23.200;2022-10-19T12:35:32;3.10;;;2.90;;
55467;SDS011;41332;42.702;23.200;2022-10-19T12:38:10;3.10;;;2.80;;
55467;SDS011;41332;42.702;23.200;2022-10-19T12:46:26;6.00;;;2.70;;
55467;SDS011;41332;42.702;23.200;2022-10-19T12:51:56;9.23;;;3.58;;
55467;SDS011;41332;42.702;23.200;2022-10-19T12:54:24;4.43;;;2.95;;
55467;SDS011;41332;42.702;23.200;2022-10-19T12:56:52;3.78;;;3.10;;
55467;SDS011;41332;42.702;23.200;2022-10-19T12:59:26;3.90;;;3.55;;
55467;SDS011;41332;42.702;23.200;2022-10-19T13:01:54;4.85;;;3.17;;
55467;SDS011;41332;42.702;23.200;2022-10-19T13:04:24;4.28;;;2.83;;
55467;SDS011;41332;42.702;23.200;2022-10-19T13:14:58;3.75;;;2.78;;
55467;SDS011;41332;42.702;23.200;2022-10-19T13:22:38;5.22;;;3.03;;
55467;SDS011;41332;42.702;23.200;2022-10-19T13:27:40;3.08;;;2.72;;
55467;SDS011;41332;42.702;23.200;2022-10-19T13:38:38;3.72;;;2.63;;
55467;SDS011;41332;42.702;23.200;2022-10-19T13:46:52;3.45;;;3.15;;
55467;SDS011;41332;42.702;23.200;2022-10-19T13:55:27;4.30;;;3.13;;
55467;SDS011;41332;42.702;23.200;2022-10-19T14:01:04;5.38;;;4.10;;
55467;SDS011;41332;42.702;23.200;2022-10-19T14:06:32;3.30;;;2.67;;
55467;SDS011;41332;42.702;23.200;2022-10-19T14:09:12;5.03;;;3.42;;
55467;SDS011;41332;42.702;23.200;2022-10-19T14:12:05;5.03;;;3.38;;
55467;SDS011;41332;42.702;23.200;2022-10-19T14:14:40;4.15;;;3.50;;
55467;SDS011;41332;42.702;23.200;2022-10-19T14:17:15;2.83;;;2.63;;
55467;SDS011;41332;42.702;23.200;2022-10-19T14:19:44;4.88;;;2.95;;
55467;SDS011;41332;42.702;23.200;2022-10-19T14:22:17;3.75;;;3.13;;
55467;SDS011;41332;42.702;23.200;2022-10-19T14:25:19;3.60;;;3.28;;
55467;SDS011;41332;42.702;23.200;2022-10-19T14:27:46;4.78;;;3.70;;
55467;SDS011;41332;42.702;23.200;2022-10-19T14:30:36;3.80;;;3.30;;
55467;SDS011;41332;42.702;23.200;2022-10-19T14:33:05;3.55;;;3.10;;
55467;SDS011;41332;42.702;23.200;2022-10-19T14:35:34;3.33;;;2.92;;
55467;SDS011;41332;42.702;23.200;2022-10-19T14:38:03;8.57;;;3.17;;
55467;SDS011;41332;42.702;23.200;2022-10-19T14:40:31;3.03;;;2.83;;
55467;SDS011;41332;42.702;23.200;2022-10-19T14:42:58;3.35;;;2.85;;
55467;SDS011;41332;42.702;23.200;2022-10-19T14:45:26;4.93;;;3.05;;
55467;SDS011;41332;42.702;23.200;2022-10-19T14:48:03;3.47;;;3.17;;
55467;SDS011;41332;42.702;23.200;2022-10-19T14:55:57;4.03;;;2.80;;
55467;SDS011;41332;42.702;23.200;2022-10-19T14:58:27;4.13;;;3.72;;
55467;SDS011;41332;42.702;23.200;2022-10-19T15:01:04;5.47;;;3.40;;
55467;SDS011;41332;42.702;23.200;2022-10-19T15:03:30;3.97;;;3.67;;
55467;SDS011;41332;42.702;23.200;2022-10-19T15:06:03;4.90;;;4.07;;
55467;SDS011;41332;42.702;23.200;2022-10-19T15:08:36;19.42;;;8.85;;
55467;SDS011;41332;42.702;23.200;2022-10-19T15:11:06;8.73;;;5.15;;
55467;SDS011;41332;42.702;23.200;2022-10-19T15:13:45;5.68;;;3.55;;
55467;SDS011;41332;42.702;23.200;2022-10-19T15:16:27;5.72;;;3.65;;
55467;SDS011;41332;42.702;23.200;2022-10-19T15:18:56;6.10;;;4.13;;
55467;SDS011;41332;42.702;23.200;2022-10-19T15:21:27;5.03;;;3.65;;
55467;SDS011;41332;42.702;23.200;2022-10-19T15:23:52;4.30;;;3.60;;
55467;SDS011;41332;42.702;23.200;2022-10-19T15:28:49;6.03;;;4.10;;
55467;SDS011;41332;42.702;23.200;2022-10-19T15:31:19;14.00;;;5.97;;
55467;SDS011;41332;42.702;23.200;2022-10-19T15:33:49;11.57;;;6.28;;
55467;SDS011;41332;42.702;23.200;2022-10-19T15:36:16;14.68;;;7.70;;
55467;SDS011;41332;42.702;23.200;2022-10-19T15:38:44;11.88;;;5.97;;
55467;SDS011;41332;42.702;23.200;2022-10-19T15:41:27;7.88;;;4.78;;
55467;SDS011;41332;42.702;23.200;2022-10-19T15:43:55;4.78;;;4.10;;
55467;SDS011;41332;42.702;23.200;2022-10-19T15:51:44;9.00;;;6.28;;
55467;SDS011;41332;42.702;23.200;2022-10-19T15:54:11;9.90;;;5.40;;
55467;SDS011;41332;42.702;23.200;2022-10-19T15:56:40;6.63;;;4.90;;
55467;SDS011;41332;42.702;23.200;2022-10-19T15:59:16;4.63;;;4.22;;
55467;SDS011;41332;42.702;23.200;2022-10-19T16:01:43;8.15;;;5.53;;
55467;SDS011;41332;42.702;23.200;2022-10-19T16:04:11;9.15;;;4.82;;
55467;SDS011;41332;42.702;23.200;2022-10-19T16:06:38;8.38;;;4.85;;
55467;SDS011;41332;42.702;23.200;2022-10-19T16:09:05;6.75;;;4.55;;
55467;SDS011;41332;42.702;23.200;2022-10-19T16:11:31;6.05;;;4.93;;
55467;SDS011;41332;42.702;23.200;2022-10-19T16:13:58;5.63;;;4.18;;
55467;SDS011;41332;42.702;23.200;2022-10-19T16:16:25;7.47;;;4.93;;
55467;SDS011;41332;42.702;23.200;2022-10-19T16:18:52;6.07;;;4.50;;
55467;SDS011;41332;42.702;23.200;2022-10-19T16:21:19;8.10;;;5.47;;
55467;SDS011;41332;42.702;23.200;2022-10-19T16:23:46;10.57;;;4.78;;
55467;SDS011;41332;42.702;23.200;2022-10-19T16:26:12;6.15;;;4.72;;
55467;SDS011;41332;42.702;23.200;2022-10-19T16:28:39;7.60;;;5.20;;
55467;SDS011;41332;42.702;23.200;2022-10-19T16:31:04;6.43;;;5.63;;
55467;SDS011;41332;42.702;23.200;2022-10-19T16:33:30;8.25;;;4.75;;
55467;SDS011;41332;42.702;23.200;2022-10-19T16:35:55;5.47;;;4.72;;
55467;SDS011;41332;42.702;23.200;2022-10-19T16:38:20;7.57;;;5.68;;
55467;SDS011;41332;42.702;23.200;2022-10-19T16:40:46;5.50;;;4.93;;
55467;SDS011;41332;42.702;23.200;2022-10-19T16:43:11;6.22;;;5.07;;
55467;SDS011;41332;42.702;23.200;2022-10-19T16:45:40;6.10;;;5.50;;
55467;SDS011;41332;42.702;23.200;2022-10-19T16:48:06;6.10;;;4.63;;
55467;SDS011;41332;42.702;23.200;2022-10-19T16:50:33;7.00;;;5.05;;
55467;SDS011;41332;42.702;23.200;2022-10-19T16:53:17;8.95;;;5.82;;
55467;SDS011;41332;42.702;23.200;2022-10-19T16:55:42;7.45;;;5.55;;
55467;SDS011;41332;42.702;23.200;2022-10-19T16:58:07;6.65;;;5.93;;
55467;SDS011;41332;42.702;23.200;2022-10-19T17:00:33;6.65;;;5.30;;
55467;SDS011;41332;42.702;23.200;2022-10-19T17:02:59;5.80;;;5.30;;
55467;SDS011;41332;42.702;23.200;2022-10-19T17:05:24;11.43;;;5.70;;
55467;SDS011;41332;42.702;23.200;2022-10-19T17:07:50;7.20;;;5.97;;
55467;SDS011;41332;42.702;23.200;2022-10-19T17:10:15;9.77;;;5.90;;
55467;SDS011;41332;42.702;23.200;2022-10-19T17:12:40;10.00;;;6.18;;
55467;SDS011;41332;42.702;23.200;2022-10-19T17:15:06;6.80;;;5.68;;
55467;SDS011;41332;42.702;23.200;2022-10-19T17:17:32;5.82;;;5.35;;
55467;SDS011;41332;42.702;23.200;2022-10-19T17:19:57;8.85;;;6.18;;
55467;SDS011;41332;42.702;23.200;2022-10-19T17:22:23;7.03;;;5.28;;
55467;SDS011;41332;42.702;23.200;2022-10-19T17:24:48;6.07;;;5.20;;
55467;SDS011;41332;42.702;23.200;2022-10-19T17:27:14;5.78;;;4.93;;
55467;SDS011;41332;42.702;23.200;2022-10-19T17:29:39;9.32;;;5.80;;
55467;SDS011;41332;42.702;23.200;2022-10-19T17:32:04;5.93;;;5.38;;
55467;SDS011;41332;42.702;23.200;2022-10-19T17:34:30;11.45;;;6.72;;
55467;SDS011;41332;42.702;23.200;2022-10-19T17:36:55;7.35;;;6.32;;
55467;SDS011;41332;42.702;23.200;2022-10-19T17:39:22;6.97;;;6.25;;
55467;SDS011;41332;42.702;23.200;2022-10-19T17:41:49;11.75;;;6.65;;
55467;SDS011;41332;42.702;23.200;2022-10-19T17:44:16;8.75;;;6.43;;
55467;SDS011;41332;42.702;23.200;2022-10-19T17:46:42;8.00;;;6.50;;
55467;SDS011;41332;42.702;23.200;2022-10-19T17:49:09;8.30;;;5.95;;